Beauvais, France

9:06 AM CET on February 27, 2017 (GMT +0100)
Tille | | Change Station

Elev 364 ft 49.47 °N, 2.12 °E | Updated 36 minutes ago

Overcast
Overcast
50 °F
Feels Like 50 °F
N
17
Wind Variable Wind from South

Today
High -- | Low -- °F
--% Chance of Precip.
Yesterday
High -- | Low -- °F
Precip. -- in
Pressure 29.56 in
Visibility 6.2 miles
Clouds Mostly Cloudy 2800 ft
Mostly Cloudy 3600 ft
Overcast 4400 ft
Dew Point 41 °F
Humidity 71%
Rainfall 0.00 in
Snow Depth Not available.
7:38 AM 6:31 PM
New Moon, 1% visible
METAR LFOB 270730Z AUTO 19015KT 9999 BKN028 BKN036 OVC044 10/05 Q1001 TEMPO 20020G35KT 4000 RA OVC007
Pressure 29.56 in
Visibility 6.2 miles
Clouds Mostly Cloudy 2800 ft
Mostly Cloudy 3600 ft
Overcast 4400 ft
Dew Point 41 °F
Humidity 71%
Rainfall 0.00 in
Snow Depth Not available.
7:38 AM 6:31 PM
New Moon, 1% visible
METAR LFOB 270730Z AUTO 19015KT 9999 BKN028 BKN036 OVC044 10/05 Q1001 TEMPO 20020G35KT 4000 RA OVC007

Get Your Daily Forecast Email!

Thanks for signing up!

Be on the lookout for a verification email in your inbox.

You'll start receiving the daily forecast at 8 AM.

×

10-Day Weather Forecast

×

Almanac

Astronomy

Feb. 27, 2017 Rise Set
Actual Time
Civil Twilight
Nautical Twilight
Astronomical Twilight
Moon
Length of Visible Light
Length of Day
Tomorrow will be .
, % of the Moon is Illuminated

Today's Extremes

Country Highs Country Lows

Community

WunderPhotos

Upload Photos

1,962,540 photos uploaded!

WunderBlog® & News

Nearby

Air Quality

  Air Quality AQ Index Pollutant
Not available.

Snow Depth

Station Depth Elevation

Earthquake Activity

City Distance Mag. Time & Date
Minimum magnitude displayed is 2.5.

Coastal Water Temperatures

Place Temperature

Stations

Nearby Weather Stations

Station Location Temp. Windchill Dew Point Humidity Wind Precip. Elev Updated Type